createdAt,value
2018-10-07T00:00:17.669Z,39.40
2018-10-07T00:00:51.987Z,39.57
2018-10-07T00:01:26.590Z,39.63
2018-10-07T00:02:03.869Z,40.80
2018-10-07T00:02:38.129Z,41.17
2018-10-07T00:03:11.958Z,42.37
2018-10-07T00:03:45.784Z,39.23
2018-10-07T00:04:19.786Z,40.57
2018-10-07T00:04:54.282Z,41.27
2018-10-07T00:05:28.270Z,40.40
2018-10-07T00:06:02.164Z,41.57
2018-10-07T00:06:36.117Z,41.53
2018-10-07T00:07:10.111Z,42.53
2018-10-07T00:07:44.074Z,41.13
2018-10-07T00:08:18.081Z,43.03
2018-10-07T00:08:52.444Z,43.23
2018-10-07T00:09:26.950Z,41.23
2018-10-07T00:10:01.275Z,41.37
2018-10-07T00:10:35.194Z,43.07
2018-10-07T00:11:09.177Z,42.57
2018-10-07T00:11:43.541Z,40.53
2018-10-07T00:12:17.507Z,41.23
2018-10-07T00:12:51.745Z,40.77
2018-10-07T00:13:26.270Z,41.37
2018-10-07T00:14:00.241Z,43.17
2018-10-07T00:14:33.958Z,41.90
2018-10-07T00:15:07.998Z,41.63
2018-10-07T00:15:41.948Z,41.97
2018-10-07T00:16:15.740Z,42.90
2018-10-07T00:16:49.511Z,43.37
2018-10-07T00:17:24.430Z,42.07
2018-10-07T00:17:59.137Z,43.63
2018-10-07T00:18:33.032Z,43.50
2018-10-07T00:19:07.070Z,42.13
2018-10-07T00:19:41.055Z,44.30
2018-10-07T00:20:14.812Z,45.07
2018-10-07T00:20:48.774Z,43.53
2018-10-07T00:21:23.027Z,44.07
2018-10-07T00:21:57.361Z,44.27
2018-10-07T00:22:31.431Z,41.67
2018-10-07T00:23:05.376Z,40.77
2018-10-07T00:23:39.251Z,43.57
2018-10-07T00:24:13.015Z,43.23
2018-10-07T00:24:46.936Z,42.73
2018-10-07T00:25:21.089Z,43.13
2018-10-07T00:25:55.703Z,43.53
2018-10-07T00:26:30.061Z,42.70
2018-10-07T00:27:03.869Z,44.53
2018-10-07T00:27:37.908Z,44.90
2018-10-07T00:28:11.797Z,44.80
2018-10-07T00:28:45.599Z,44.03
2018-10-07T00:29:19.511Z,44.40
2018-10-07T00:29:55.251Z,46.30
2018-10-07T00:30:29.502Z,44.67
2018-10-07T00:31:03.906Z,43.77
2018-10-07T00:31:43.384Z,42.67
2018-10-07T00:32:17.221Z,41.60
2018-10-07T00:32:51.174Z,42.33
2018-10-07T00:33:25.277Z,43.20
2018-10-07T00:33:59.577Z,42.93
2018-10-07T00:34:33.472Z,41.63
2018-10-07T00:35:07.481Z,42.80
2018-10-07T00:35:41.274Z,42.47
2018-10-07T00:36:14.883Z,42.47
2018-10-07T00:36:48.840Z,43.83
2018-10-07T00:37:22.726Z,44.37
2018-10-07T00:37:56.883Z,43.27
2018-10-07T00:38:30.891Z,43.20
2018-10-07T00:39:06.696Z,44.70
2018-10-07T00:39:40.377Z,43.00
2018-10-07T00:40:14.286Z,44.80
2018-10-07T00:40:48.235Z,42.43
2018-10-07T00:41:22.102Z,41.57
2018-10-07T00:41:56.340Z,43.53
2018-10-07T00:42:30.504Z,43.40
2018-10-07T00:43:04.384Z,42.70
2018-10-07T00:43:38.432Z,43.27
2018-10-07T00:44:12.319Z,42.50
2018-10-07T00:44:46.343Z,42.10
2018-10-07T00:45:20.224Z,43.40
2018-10-07T00:45:54.220Z,43.60
2018-10-07T00:46:28.483Z,42.03
2018-10-07T00:47:02.591Z,42.97
2018-10-07T00:47:36.676Z,43.03
2018-10-07T00:48:10.746Z,41.37
2018-10-07T00:48:44.745Z,43.17
2018-10-07T00:49:18.666Z,42.73
2018-10-07T00:49:52.720Z,42.83
2018-10-07T00:50:26.803Z,43.57
2018-10-07T00:51:01.206Z,40.87
2018-10-07T00:51:35.700Z,41.67
2018-10-07T00:52:09.578Z,43.47
2018-10-07T00:52:43.645Z,41.60
2018-10-07T00:53:17.304Z,42.77
2018-10-07T00:53:51.163Z,41.17
2018-10-07T00:54:25.092Z,42.27
2018-10-07T00:54:59.396Z,44.27
2018-10-07T00:55:33.761Z,44.03
2018-10-07T00:56:07.723Z,43.00
2018-10-07T00:56:41.860Z,43.80
2018-10-07T00:57:15.752Z,42.57
2018-10-07T00:57:49.436Z,44.23
2018-10-07T00:58:23.508Z,42.90
2018-10-07T00:58:57.980Z,43.37
2018-10-07T00:59:32.706Z,43.07
2018-10-07T01:00:07.789Z,44.40
2018-10-07T01:00:41.563Z,43.77
2018-10-07T01:01:15.236Z,44.43
2018-10-07T01:01:49.327Z,43.97
2018-10-07T01:02:23.037Z,45.53
2018-10-07T01:02:57.166Z,45.07
2018-10-07T01:03:31.667Z,46.20
2018-10-07T01:04:05.584Z,44.67
2018-10-07T01:04:39.465Z,46.33
2018-10-07T01:05:13.292Z,44.77
2018-10-07T01:05:47.297Z,45.03
2018-10-07T01:06:21.177Z,44.33
2018-10-07T01:06:54.855Z,47.70
2018-10-07T01:07:28.863Z,45.50
2018-10-07T01:08:02.936Z,46.73
2018-10-07T01:08:36.932Z,46.63
2018-10-07T01:09:12.033Z,46.13
2018-10-07T01:09:46.143Z,46.53
2018-10-07T01:10:20.200Z,46.30
2018-10-07T01:10:53.856Z,47.83
2018-10-07T01:11:27.897Z,44.57
2018-10-07T01:12:02.080Z,45.23
2018-10-07T01:12:36.135Z,47.13
2018-10-07T01:13:10.064Z,47.03
2018-10-07T01:13:44.012Z,46.13
2018-10-07T01:14:17.867Z,45.47
2018-10-07T01:14:51.800Z,47.87
2018-10-07T01:15:25.661Z,46.67
2018-10-07T01:15:59.683Z,46.70
2018-10-07T01:16:33.807Z,47.23
2018-10-07T01:17:08.058Z,50.13
2018-10-07T01:17:42.404Z,47.77
2018-10-07T01:18:16.092Z,48.07
2018-10-07T01:18:49.828Z,48.70
2018-10-07T01:19:23.842Z,50.83
2018-10-07T01:19:58.061Z,48.93
2018-10-07T01:20:32.809Z,48.30
2018-10-07T01:21:06.571Z,48.17
2018-10-07T01:21:40.586Z,50.93
2018-10-07T01:22:14.537Z,49.27
2018-10-07T01:22:48.441Z,50.17
2018-10-07T01:23:22.404Z,51.13
2018-10-07T01:23:56.249Z,49.40
2018-10-07T01:24:30.069Z,48.30
2018-10-07T01:25:04.370Z,50.33
2018-10-07T01:25:38.708Z,50.90
2018-10-07T01:26:12.743Z,50.93
2018-10-07T01:26:46.615Z,50.00
2018-10-07T01:27:20.453Z,50.20
2018-10-07T01:27:55.248Z,50.90
2018-10-07T01:28:29.033Z,51.50
2018-10-07T01:29:03.201Z,50.67
2018-10-07T01:29:37.682Z,50.20
2018-10-07T01:30:14.427Z,49.10
2018-10-07T01:30:48.202Z,48.93
2018-10-07T01:31:22.185Z,49.63
2018-10-07T01:31:56.165Z,52.13
2018-10-07T01:32:30.113Z,54.50
2018-10-07T01:33:04.116Z,50.47
2018-10-07T01:33:38.433Z,51.83
2018-10-07T01:34:12.217Z,52.93
2018-10-07T01:34:45.971Z,51.40
2018-10-07T01:35:19.958Z,54.03
2018-10-07T01:35:54.302Z,56.13
2018-10-07T01:36:28.273Z,55.63
2018-10-07T01:37:02.131Z,58.00
2018-10-07T01:37:36.225Z,54.97
2018-10-07T01:38:10.164Z,55.93
2018-10-07T01:38:44.052Z,56.53
2018-10-07T01:39:17.959Z,59.13
2018-10-07T01:39:51.846Z,62.00
2018-10-07T01:40:25.634Z,58.93
2018-10-07T01:40:59.537Z,59.13
2018-10-07T01:41:33.294Z,60.10
2018-10-07T01:42:07.563Z,60.10
2018-10-07T01:42:41.644Z,61.33
2018-10-07T01:43:15.513Z,60.60
2018-10-07T01:43:49.426Z,61.23
2018-10-07T01:44:23.217Z,59.87
2018-10-07T01:44:57.254Z,60.47
2018-10-07T01:45:31.319Z,61.80
2018-10-07T01:46:05.444Z,61.90
2018-10-07T01:46:39.832Z,61.40
2018-10-07T01:47:13.734Z,68.20
2018-10-07T01:47:47.528Z,65.83
2018-10-07T01:48:21.518Z,66.20
2018-10-07T01:48:55.481Z,64.43
2018-10-07T01:49:30.444Z,66.83
2018-10-07T01:50:04.588Z,70.17
2018-10-07T01:50:38.862Z,66.17
2018-10-07T01:51:12.709Z,71.20
2018-10-07T01:51:46.936Z,68.53
2018-10-07T01:52:20.790Z,72.33
2018-10-07T01:52:54.804Z,70.40
2018-10-07T01:53:28.508Z,68.03
2018-10-07T01:54:02.770Z,69.50
2018-10-07T01:54:36.833Z,69.20
2018-10-07T01:55:10.782Z,71.33
2018-10-07T01:55:44.548Z,71.03
2018-10-07T01:56:18.337Z,68.17
2018-10-07T01:56:52.149Z,75.00
2018-10-07T01:57:25.961Z,72.97
2018-10-07T01:57:59.760Z,70.63
2018-10-07T01:58:33.626Z,71.13
2018-10-07T01:59:07.930Z,73.47
2018-10-07T01:59:42.128Z,75.93
2018-10-07T02:00:16.037Z,75.23
2018-10-07T02:00:50.113Z,74.00
2018-10-07T02:01:24.132Z,71.67
2018-10-07T02:01:57.964Z,75.77
2018-10-07T02:02:31.946Z,74.77
2018-10-07T02:03:05.670Z,71.27
2018-10-07T02:03:39.832Z,73.50
2018-10-07T02:04:13.702Z,74.90
2018-10-07T02:04:47.572Z,75.17
2018-10-07T02:05:21.700Z,75.20
2018-10-07T02:05:55.466Z,76.30
2018-10-07T02:06:29.319Z,78.07
2018-10-07T02:07:03.329Z,77.37
2018-10-07T02:07:37.326Z,76.37
2018-10-07T02:08:11.353Z,77.27
2018-10-07T02:08:45.296Z,77.17
2018-10-07T02:09:19.319Z,75.83
2018-10-07T02:09:53.250Z,74.30
2018-10-07T02:10:27.367Z,78.63
2018-10-07T02:11:01.506Z,75.47
2018-10-07T02:11:35.620Z,73.13
2018-10-07T02:12:11.318Z,77.00
2018-10-07T02:12:45.341Z,76.70
2018-10-07T02:13:19.320Z,75.87
2018-10-07T02:13:53.236Z,76.57
2018-10-07T02:14:27.282Z,77.13
2018-10-07T02:15:01.109Z,78.53
2018-10-07T02:16:15.982Z,75.93
2018-10-07T02:16:50.016Z,78.77
2018-10-07T02:17:23.760Z,79.50
2018-10-07T02:17:57.640Z,77.80
2018-10-07T02:18:31.756Z,80.47
2018-10-07T02:19:05.701Z,74.03
2018-10-07T02:19:39.676Z,76.27
2018-10-07T02:20:14.028Z,77.40
2018-10-07T02:20:48.281Z,78.70
2018-10-07T02:21:21.992Z,78.63
2018-10-07T02:21:55.806Z,81.27
2018-10-07T02:22:29.701Z,78.30
2018-10-07T02:23:03.881Z,75.70
2018-10-07T02:23:37.797Z,78.50
2018-10-07T02:24:12.224Z,79.27
2018-10-07T02:24:46.163Z,77.80
2018-10-07T02:25:20.131Z,73.77
2018-10-07T02:25:54.197Z,77.60
2018-10-07T02:26:28.113Z,76.90
2018-10-07T02:27:02.188Z,77.50
2018-10-07T02:27:36.515Z,73.40
2018-10-07T02:28:10.615Z,76.40
2018-10-07T02:28:44.603Z,75.07
2018-10-07T02:29:18.807Z,77.47
2018-10-07T02:29:52.583Z,75.10
2018-10-07T02:30:26.725Z,75.23
2018-10-07T02:31:00.827Z,75.50
2018-10-07T02:31:34.669Z,78.87
2018-10-07T02:32:08.518Z,80.40
2018-10-07T02:32:42.808Z,78.97
2018-10-07T02:33:16.804Z,78.23
2018-10-07T02:33:50.873Z,70.63
2018-10-07T02:34:24.745Z,75.83
2018-10-07T02:34:58.657Z,80.10
2018-10-07T02:35:32.396Z,76.73
2018-10-07T02:36:06.430Z,75.47
2018-10-07T02:36:40.440Z,77.60
2018-10-07T02:37:14.276Z,74.33
2018-10-07T02:37:48.544Z,79.73
2018-10-07T02:38:22.359Z,76.53
2018-10-07T02:38:56.484Z,75.77
2018-10-07T02:39:30.265Z,73.93
2018-10-07T02:40:04.324Z,75.27
2018-10-07T02:40:40.585Z,72.93
2018-10-07T02:41:14.828Z,75.53
2018-10-07T02:41:48.681Z,76.73
2018-10-07T02:42:22.857Z,77.93
2018-10-07T02:42:56.621Z,73.77
2018-10-07T02:43:30.436Z,75.40
2018-10-07T02:44:04.181Z,75.97
2018-10-07T02:44:38.119Z,75.13
2018-10-07T02:45:12.137Z,70.50
2018-10-07T02:45:46.064Z,73.27
2018-10-07T02:46:20.170Z,72.17
2018-10-07T02:46:54.036Z,74.83
2018-10-07T02:47:28.108Z,74.20
2018-10-07T02:48:02.099Z,71.53
2018-10-07T02:48:35.985Z,73.27
2018-10-07T02:49:09.748Z,73.60
2018-10-07T02:49:43.707Z,73.20
2018-10-07T02:50:21.247Z,71.17
2018-10-07T02:50:55.142Z,70.20
2018-10-07T02:51:29.380Z,75.03
2018-10-07T02:52:03.216Z,71.90
2018-10-07T02:52:43.038Z,70.47
2018-10-07T02:53:17.101Z,72.03
2018-10-07T02:53:50.960Z,72.23
2018-10-07T02:54:25.291Z,71.00
2018-10-07T02:54:59.630Z,72.50
2018-10-07T02:55:33.436Z,76.23
2018-10-07T02:56:07.541Z,73.37
2018-10-07T02:56:41.467Z,74.27
2018-10-07T02:57:15.651Z,69.20
2018-10-07T02:57:51.714Z,71.67
2018-10-07T02:58:26.384Z,73.33
2018-10-07T02:59:00.516Z,72.67
2018-10-07T02:59:34.413Z,73.23
2018-10-07T03:00:08.249Z,73.97
2018-10-07T03:00:42.080Z,72.20
2018-10-07T03:01:16.140Z,72.00
2018-10-07T03:01:50.503Z,73.63
2018-10-07T03:02:24.479Z,72.80
2018-10-07T03:02:58.587Z,73.20
2018-10-07T03:03:32.346Z,71.63
2018-10-07T03:04:06.214Z,72.80
2018-10-07T03:04:40.653Z,74.67
2018-10-07T03:05:15.269Z,72.03
2018-10-07T03:05:49.465Z,70.50
2018-10-07T03:06:23.973Z,71.33
2018-10-07T03:06:57.724Z,70.00
2018-10-07T03:07:31.606Z,67.70
2018-10-07T03:08:05.605Z,69.80
2018-10-07T03:08:39.470Z,71.80
2018-10-07T03:09:15.076Z,70.03
2018-10-07T03:09:49.533Z,73.40
2018-10-07T03:10:23.470Z,74.33
2018-10-07T03:10:57.392Z,75.13
2018-10-07T03:11:31.283Z,71.83
2018-10-07T03:12:05.264Z,72.27
2018-10-07T03:12:39.122Z,74.50
2018-10-07T03:13:13.088Z,71.27
2018-10-07T03:13:46.995Z,71.73
2018-10-07T03:14:20.838Z,73.13
2018-10-07T03:14:54.813Z,72.97
2018-10-07T03:15:28.629Z,71.93
2018-10-07T03:16:02.422Z,69.73
2018-10-07T03:16:36.454Z,66.93
2018-10-07T03:17:10.448Z,67.87
2018-10-07T03:17:44.371Z,67.73
2018-10-07T03:18:18.327Z,66.73
2018-10-07T03:18:52.560Z,66.80
2018-10-07T03:19:26.341Z,68.03
2018-10-07T03:20:00.506Z,67.30
2018-10-07T03:20:34.196Z,66.97
2018-10-07T03:21:08.279Z,63.27
2018-10-07T03:21:42.027Z,65.50
2018-10-07T03:22:16.060Z,65.63
2018-10-07T03:22:50.609Z,64.47
2018-10-07T03:23:24.804Z,66.33
2018-10-07T03:23:58.782Z,66.47
2018-10-07T03:24:33.003Z,67.13
2018-10-07T03:25:07.047Z,63.47
2018-10-07T03:25:41.203Z,63.37
2018-10-07T03:26:14.886Z,65.83
2018-10-07T03:26:48.625Z,62.70
2018-10-07T03:27:23.194Z,61.40
2018-10-07T03:27:57.107Z,61.23
2018-10-07T03:28:31.238Z,63.10
2018-10-07T03:29:05.082Z,59.93
2018-10-07T03:29:39.092Z,60.23
2018-10-07T03:30:12.922Z,59.87
2018-10-07T03:30:46.878Z,59.00
2018-10-07T03:31:21.402Z,60.77
2018-10-07T03:31:55.723Z,60.27
2018-10-07T03:32:29.559Z,58.03
2018-10-07T03:33:03.738Z,56.70
2018-10-07T03:33:37.571Z,58.57
2018-10-07T03:34:11.581Z,56.80
2018-10-07T03:34:45.725Z,53.80
2018-10-07T03:35:19.559Z,54.63
2018-10-07T03:35:53.559Z,54.20
2018-10-07T03:36:27.423Z,52.03
2018-10-07T03:37:01.786Z,50.67
2018-10-07T03:37:35.620Z,50.30
2018-10-07T03:38:09.617Z,48.70
2018-10-07T03:38:43.517Z,50.50
2018-10-07T03:39:17.564Z,49.00
2018-10-07T03:39:51.631Z,50.30
2018-10-07T03:40:25.593Z,49.70
2018-10-07T03:41:00.093Z,47.80
2018-10-07T03:41:33.876Z,43.27
2018-10-07T03:42:07.704Z,42.10
2018-10-07T03:42:41.772Z,39.47
2018-10-07T03:43:15.615Z,40.27
2018-10-07T03:43:49.486Z,39.17
2018-10-07T03:44:23.523Z,36.80
2018-10-07T03:44:57.424Z,36.13
2018-10-07T03:45:31.263Z,36.53
2018-10-07T03:46:05.141Z,36.27
2018-10-07T03:46:39.059Z,35.57
2018-10-07T03:47:13.003Z,29.73
2018-10-07T03:47:47.110Z,29.57
2018-10-07T03:48:21.044Z,28.00
2018-10-07T03:48:54.991Z,25.30
2018-10-07T03:49:29.421Z,25.87
2018-10-07T03:50:03.401Z,24.87
2018-10-07T03:50:37.238Z,25.93
2018-10-07T03:51:11.214Z,25.77
2018-10-07T03:51:45.188Z,24.00
2018-10-07T03:52:18.962Z,23.63
2018-10-07T03:52:53.187Z,21.90
2018-10-07T03:53:27.319Z,23.37
2018-10-07T03:54:01.265Z,22.30
2018-10-07T03:54:35.561Z,20.53
2018-10-07T03:55:09.305Z,20.07
2018-10-07T03:55:43.179Z,18.27
2018-10-07T03:56:17.014Z,19.03
2018-10-07T03:56:50.795Z,18.80
2018-10-07T03:57:24.808Z,17.83
2018-10-07T03:57:59.011Z,19.03
2018-10-07T03:58:32.979Z,16.27
2018-10-07T03:59:06.799Z,16.60
2018-10-07T03:59:40.780Z,17.20
2018-10-07T04:00:14.597Z,16.43
2018-10-07T04:00:48.743Z,15.30
2018-10-07T04:01:22.664Z,15.53
2018-10-07T04:01:57.509Z,16.23
2018-10-07T04:02:31.440Z,15.63
2018-10-07T04:03:05.772Z,16.13
2018-10-07T04:03:39.516Z,17.03
2018-10-07T04:04:13.609Z,16.80
2018-10-07T04:04:47.746Z,16.37
2018-10-07T04:05:21.691Z,16.00
2018-10-07T04:05:55.570Z,16.63
2018-10-07T04:06:29.678Z,16.13
2018-10-07T04:07:03.773Z,16.87
2018-10-07T04:07:37.646Z,17.03
2018-10-07T04:08:11.804Z,15.60
2018-10-07T04:08:45.723Z,15.40
2018-10-07T04:09:19.855Z,16.33
2018-10-07T04:09:53.588Z,16.30
2018-10-07T04:10:27.837Z,15.53
2018-10-07T04:11:03.045Z,15.97
2018-10-07T04:11:37.243Z,16.57
2018-10-07T04:12:11.344Z,15.90
2018-10-07T04:12:45.168Z,14.77
2018-10-07T04:13:18.927Z,16.47
2018-10-07T04:13:52.969Z,15.83
2018-10-07T04:14:26.937Z,15.90
2018-10-07T04:15:01.669Z,15.70
2018-10-07T04:15:35.591Z,16.27
2018-10-07T04:16:09.404Z,15.60
2018-10-07T04:16:43.303Z,15.67
2018-10-07T04:17:17.147Z,14.70
2018-10-07T04:17:51.038Z,15.77
2018-10-07T04:18:25.039Z,16.30
2018-10-07T04:18:59.709Z,15.77
2018-10-07T04:19:33.915Z,14.93
2018-10-07T04:20:07.752Z,15.80
2018-10-07T04:20:41.742Z,16.77
2018-10-07T04:21:15.525Z,15.80
2018-10-07T04:21:53.579Z,14.87
2018-10-07T04:22:27.451Z,15.10
2018-10-07T04:23:01.885Z,15.73
2018-10-07T04:23:36.197Z,15.00
2018-10-07T04:24:10.449Z,15.03
2018-10-07T04:24:44.284Z,14.27
2018-10-07T04:25:18.090Z,16.13
2018-10-07T04:25:51.937Z,14.93
2018-10-07T04:26:25.658Z,15.30
2018-10-07T04:26:59.649Z,15.07
2018-10-07T04:27:33.710Z,15.23
2018-10-07T04:28:07.585Z,14.73
2018-10-07T04:28:41.859Z,14.83
2018-10-07T04:29:15.851Z,15.70
2018-10-07T04:29:49.778Z,14.03
2018-10-07T04:30:23.497Z,15.47
2018-10-07T04:30:57.437Z,15.97
2018-10-07T04:31:31.290Z,15.07
2018-10-07T04:32:05.414Z,14.53
2018-10-07T04:32:39.478Z,15.83
2018-10-07T04:33:13.515Z,14.00
2018-10-07T04:33:47.330Z,14.50
2018-10-07T04:34:21.256Z,14.43
2018-10-07T04:34:55.197Z,14.53
2018-10-07T04:35:29.145Z,14.03
2018-10-07T04:36:03.039Z,14.43
2018-10-07T04:36:37.286Z,14.70
2018-10-07T04:37:11.196Z,14.40
2018-10-07T04:37:45.103Z,14.47
2018-10-07T04:38:18.896Z,14.93
2018-10-07T04:38:52.855Z,14.37
2018-10-07T04:39:26.842Z,14.27
2018-10-07T04:40:00.597Z,14.67
2018-10-07T04:40:34.661Z,14.73
2018-10-07T04:41:09.322Z,14.70
2018-10-07T04:41:43.824Z,13.93
2018-10-07T04:42:17.458Z,13.40
2018-10-07T04:42:51.549Z,14.90
2018-10-07T04:43:25.511Z,14.17
2018-10-07T04:43:59.345Z,14.20
2018-10-07T04:44:33.156Z,15.17
2018-10-07T04:45:07.548Z,14.43
2018-10-07T04:45:41.615Z,14.77
2018-10-07T04:46:15.612Z,13.73
2018-10-07T04:46:49.365Z,15.23
2018-10-07T04:47:23.099Z,14.97
2018-10-07T04:47:56.754Z,15.20
2018-10-07T04:48:30.685Z,14.73
2018-10-07T04:49:05.262Z,14.60
2018-10-07T04:49:39.300Z,14.00
2018-10-07T04:50:13.019Z,15.60
2018-10-07T04:50:46.968Z,14.60
2018-10-07T04:51:20.755Z,14.27
2018-10-07T04:51:54.589Z,13.83
2018-10-07T04:52:28.459Z,15.30
2018-10-07T04:53:02.580Z,14.70
2018-10-07T04:53:36.716Z,15.13
2018-10-07T04:54:10.611Z,14.57
2018-10-07T04:54:44.711Z,14.47
2018-10-07T04:55:18.674Z,15.20
2018-10-07T04:55:52.632Z,14.93
2018-10-07T04:56:26.442Z,16.07
2018-10-07T04:57:00.590Z,15.13
2018-10-07T04:57:34.575Z,15.40
2018-10-07T04:58:08.481Z,16.70
2018-10-07T04:58:42.461Z,16.73
2018-10-07T04:59:16.412Z,15.83
2018-10-07T04:59:50.162Z,16.10
2018-10-07T05:00:24.197Z,17.13
2018-10-07T05:00:57.930Z,17.53
2018-10-07T05:01:31.883Z,16.70
2018-10-07T05:02:05.896Z,17.27
2018-10-07T05:02:39.889Z,16.87
2018-10-07T05:03:13.992Z,17.87
2018-10-07T05:03:48.199Z,17.07
2018-10-07T05:04:22.035Z,17.70
2018-10-07T05:04:56.380Z,18.27
2018-10-07T05:05:30.507Z,19.57
2018-10-07T05:06:04.329Z,20.23
2018-10-07T05:06:38.300Z,20.23
2018-10-07T05:07:14.731Z,19.97
2018-10-07T05:07:49.708Z,19.83
2018-10-07T05:08:24.124Z,20.27
2018-10-07T05:08:58.290Z,18.83
2018-10-07T05:09:32.269Z,18.80
2018-10-07T05:10:17.333Z,19.53
2018-10-07T05:10:53.890Z,19.90
2018-10-07T05:11:29.024Z,20.60
2018-10-07T05:12:04.227Z,19.43
2018-10-07T05:12:38.289Z,19.57
2018-10-07T05:13:13.616Z,20.27
2018-10-07T05:13:52.238Z,20.37
2018-10-07T05:14:26.323Z,22.07
2018-10-07T05:15:00.175Z,20.70
2018-10-07T05:15:34.148Z,20.90
2018-10-07T05:16:08.239Z,22.07
2018-10-07T05:16:47.246Z,21.80
2018-10-07T05:17:21.126Z,21.83
2018-10-07T05:17:55.231Z,22.30
2018-10-07T05:18:29.660Z,22.33
2018-10-07T05:19:04.059Z,21.13
2018-10-07T05:19:38.152Z,22.10
2018-10-07T05:20:12.208Z,22.43
2018-10-07T05:20:46.136Z,22.83
2018-10-07T05:21:20.116Z,23.07
2018-10-07T05:21:54.165Z,22.03
2018-10-07T05:22:28.205Z,22.47
2018-10-07T05:23:02.405Z,22.37
2018-10-07T05:23:36.257Z,23.50
2018-10-07T05:24:10.248Z,22.97
2018-10-07T05:24:44.157Z,21.57
2018-10-07T05:25:18.109Z,22.93
2018-10-07T05:25:52.227Z,23.37
2018-10-07T05:26:26.409Z,24.23
2018-10-07T05:27:00.190Z,23.20
2018-10-07T05:27:34.072Z,23.10
2018-10-07T05:28:07.979Z,24.00
2018-10-07T05:28:42.283Z,22.93
2018-10-07T05:29:16.359Z,23.23
2018-10-07T05:29:50.602Z,23.77
2018-10-07T05:30:24.577Z,24.33
2018-10-07T05:30:58.435Z,23.00
2018-10-07T05:31:32.200Z,23.23
2018-10-07T05:32:06.154Z,23.80
2018-10-07T05:32:40.312Z,22.93
2018-10-07T05:33:14.589Z,22.20
2018-10-07T05:33:48.675Z,21.33
2018-10-07T05:34:22.511Z,21.40
2018-10-07T05:34:56.356Z,21.33
2018-10-07T05:35:30.195Z,20.17
2018-10-07T05:36:03.927Z,19.57
2018-10-07T05:36:37.782Z,20.57
2018-10-07T05:37:11.664Z,19.37
2018-10-07T05:37:45.658Z,21.40
2018-10-07T05:38:19.604Z,20.53
2018-10-07T05:38:53.536Z,20.43
2018-10-07T05:39:27.563Z,18.93
2018-10-07T05:40:01.342Z,18.33
2018-10-07T05:40:35.286Z,19.23
2018-10-07T05:41:09.301Z,18.40
2018-10-07T05:41:43.207Z,16.90
2018-10-07T05:42:17.463Z,16.37
2018-10-07T05:42:51.206Z,16.17
2018-10-07T05:43:25.020Z,15.57
2018-10-07T05:43:58.975Z,16.73
2018-10-07T05:44:33.064Z,15.33
2018-10-07T05:45:07.400Z,14.93
2018-10-07T05:45:41.221Z,14.63
2018-10-07T05:46:15.612Z,13.90
2018-10-07T05:46:49.821Z,13.63
2018-10-07T05:47:23.711Z,13.80
2018-10-07T05:47:57.553Z,14.00
2018-10-07T05:48:31.485Z,13.03
2018-10-07T05:49:05.727Z,13.30
2018-10-07T05:49:39.661Z,12.70
2018-10-07T05:50:13.890Z,12.40
2018-10-07T05:50:48.102Z,12.83
2018-10-07T05:51:22.271Z,11.67
2018-10-07T05:51:56.532Z,12.33
2018-10-07T05:52:30.248Z,12.20
2018-10-07T05:53:04.611Z,11.37
2018-10-07T05:53:38.279Z,11.60
2018-10-07T05:54:12.198Z,10.83
2018-10-07T05:54:46.389Z,11.07
2018-10-07T05:55:21.014Z,10.87
2018-10-07T05:55:54.808Z,10.03
2018-10-07T05:56:43.554Z,10.07
2018-10-07T05:57:17.802Z,8.83
2018-10-07T05:57:54.150Z,8.83
2018-10-07T05:58:28.204Z,9.47
2018-10-07T05:59:02.143Z,9.70
2018-10-07T05:59:36.028Z,8.37
2018-10-07T06:00:11.709Z,9.00
2018-10-07T06:00:45.628Z,8.50
2018-10-07T06:01:26.178Z,8.50
2018-10-07T06:02:03.623Z,8.63
2018-10-07T06:02:38.243Z,8.03
2018-10-07T06:03:21.849Z,8.07
2018-10-07T06:04:01.700Z,6.20
2018-10-07T06:04:41.023Z,7.33
2018-10-07T06:05:15.514Z,6.70
2018-10-07T06:05:51.054Z,6.80
2018-10-07T06:06:25.540Z,7.13
2018-10-07T06:07:01.555Z,6.13
2018-10-07T06:07:35.655Z,6.47
2018-10-07T06:08:10.346Z,6.00
2018-10-07T06:08:44.281Z,6.83
2018-10-07T06:09:24.743Z,7.33
2018-10-07T06:09:58.788Z,6.93
2018-10-07T06:10:32.792Z,6.40
2018-10-07T06:11:07.227Z,6.00
2018-10-07T06:11:41.456Z,6.47
2018-10-07T06:12:15.636Z,6.50
2018-10-07T06:12:49.923Z,5.93
2018-10-07T06:13:24.309Z,5.80
2018-10-07T06:13:58.523Z,6.20
2018-10-07T06:14:43.965Z,6.03
2018-10-07T06:15:29.793Z,5.10
2018-10-07T06:16:03.722Z,4.87
2018-10-07T06:16:38.008Z,4.87
2018-10-07T06:17:11.999Z,4.70
2018-10-07T06:17:45.868Z,5.47
2018-10-07T06:18:20.744Z,4.90
2018-10-07T06:18:54.831Z,5.53
2018-10-07T06:19:29.190Z,5.03
2018-10-07T06:20:03.313Z,4.97
2018-10-07T06:20:37.376Z,4.40
2018-10-07T06:21:11.640Z,4.50
2018-10-07T06:21:45.776Z,4.50
2018-10-07T06:22:21.008Z,4.30
2018-10-07T06:22:55.342Z,4.47
2018-10-07T06:23:29.795Z,4.23
2018-10-07T06:24:03.956Z,3.80
2018-10-07T06:24:38.042Z,3.43
2018-10-07T06:25:12.804Z,3.60
2018-10-07T06:25:46.609Z,3.17
2018-10-07T06:26:20.630Z,3.30
2018-10-07T06:26:55.164Z,3.07
2018-10-07T06:27:28.980Z,3.20
2018-10-07T06:28:02.852Z,2.90
2018-10-07T06:28:36.990Z,2.93
2018-10-07T06:29:10.836Z,3.03
2018-10-07T06:29:44.918Z,2.87
2018-10-07T06:30:19.334Z,2.63
2018-10-07T06:30:53.415Z,2.30
2018-10-07T06:31:27.446Z,2.20
2018-10-07T06:32:01.796Z,2.73
2018-10-07T06:32:36.827Z,2.37
2018-10-07T06:33:10.798Z,2.30
2018-10-07T06:33:44.797Z,1.93
2018-10-07T06:34:19.516Z,1.97
2018-10-07T06:34:53.634Z,1.57
2018-10-07T06:35:27.637Z,1.37
2018-10-07T06:36:02.017Z,1.63
2018-10-07T06:36:36.229Z,1.77
2018-10-07T06:37:10.136Z,1.90
2018-10-07T06:37:44.236Z,1.63
2018-10-07T06:38:18.337Z,1.83
2018-10-07T06:38:52.380Z,2.33
2018-10-07T06:39:26.367Z,1.50
2018-10-07T06:40:00.724Z,2.00
2018-10-07T06:40:34.832Z,1.67
2018-10-07T06:41:08.986Z,1.87
2018-10-07T06:41:43.215Z,1.87
2018-10-07T06:42:17.622Z,1.73
2018-10-07T06:42:51.771Z,2.00
2018-10-07T06:43:26.678Z,1.43
2018-10-07T06:44:01.072Z,1.90
2018-10-07T06:44:35.058Z,1.63
2018-10-07T06:45:09.260Z,1.33
2018-10-07T06:45:43.647Z,1.40
2018-10-07T06:46:17.547Z,1.57
2018-10-07T06:46:51.565Z,1.70
2018-10-07T06:47:26.027Z,1.73
2018-10-07T06:48:00.819Z,1.80
2018-10-07T06:48:34.968Z,2.00
2018-10-07T06:49:08.936Z,1.80
2018-10-07T06:49:42.920Z,1.80
2018-10-07T06:50:16.946Z,1.60
2018-10-07T06:50:50.857Z,1.73
2018-10-07T06:51:25.181Z,2.10
2018-10-07T06:51:59.269Z,1.77
2018-10-07T06:52:33.178Z,2.03
2018-10-07T06:53:07.878Z,1.80
2018-10-07T06:53:41.729Z,1.73
2018-10-07T06:54:15.635Z,1.37
2018-10-07T06:54:49.524Z,1.60
2018-10-07T06:55:23.691Z,1.57
2018-10-07T06:55:58.110Z,1.57
2018-10-07T06:56:32.545Z,1.70
2018-10-07T06:57:06.628Z,1.70
2018-10-07T06:57:40.844Z,1.63
2018-10-07T06:58:14.662Z,2.13
2018-10-07T06:58:48.528Z,1.90
2018-10-07T06:59:22.618Z,1.90
2018-10-07T06:59:56.858Z,1.77
2018-10-07T07:00:31.345Z,2.37
2018-10-07T07:01:05.362Z,2.03
2018-10-07T07:01:40.040Z,2.30
2018-10-07T07:02:14.202Z,1.93
2018-10-07T07:02:48.248Z,2.30
2018-10-07T07:03:22.437Z,2.10
2018-10-07T07:03:56.660Z,2.23
2018-10-07T07:04:30.810Z,2.10
2018-10-07T07:05:05.050Z,2.20
2018-10-07T07:05:38.724Z,2.10
2018-10-07T07:06:12.939Z,2.40
2018-10-07T07:06:46.837Z,2.67
2018-10-07T07:07:21.047Z,2.00
2018-10-07T07:07:55.098Z,1.60
2018-10-07T07:08:29.375Z,2.07
2018-10-07T07:09:05.624Z,2.23
2018-10-07T07:09:39.651Z,1.70
2018-10-07T07:10:13.593Z,2.20
2018-10-07T07:10:47.491Z,2.13
2018-10-07T07:11:21.263Z,2.03
2018-10-07T07:11:55.184Z,1.87
2018-10-07T07:12:29.614Z,2.00
2018-10-07T07:13:04.175Z,1.83
2018-10-07T07:13:37.981Z,2.20
2018-10-07T07:14:11.804Z,2.23
2018-10-07T07:14:45.706Z,2.20
2018-10-07T07:15:19.804Z,1.83
2018-10-07T07:15:53.676Z,2.20
2018-10-07T07:16:27.801Z,2.20
2018-10-07T07:17:02.007Z,2.10
2018-10-07T07:17:36.272Z,2.30
2018-10-07T07:18:10.302Z,2.00
2018-10-07T07:18:44.194Z,2.00
2018-10-07T07:19:18.101Z,2.20
2018-10-07T07:19:52.090Z,1.83
2018-10-07T07:20:26.147Z,2.00
2018-10-07T07:21:00.595Z,1.97
2018-10-07T07:21:34.954Z,1.83
2018-10-07T07:22:08.684Z,2.00
2018-10-07T07:22:42.553Z,1.60
2018-10-07T07:23:16.287Z,2.10
2018-10-07T07:23:50.395Z,1.90
2018-10-07T07:24:24.173Z,2.23